sensor_id;sensor_type;location;lat;lon;timestamp;P1;durP1;ratioP1;P2;durP2;ratioP2
74965;SDS011;63522;47.928;21.042;2022-09-25T00:00:20;1.70;;;1.10;;
74965;SDS011;63522;47.928;21.042;2022-09-25T00:02:45;1.70;;;1.10;;
74965;SDS011;63522;47.928;21.042;2022-09-25T00:05:11;1.10;;;0.70;;
74965;SDS011;63522;47.928;21.042;2022-09-25T00:07:36;1.50;;;0.90;;
74965;SDS011;63522;47.928;21.042;2022-09-25T00:10:02;1.90;;;1.10;;
74965;SDS011;63522;47.928;21.042;2022-09-25T00:12:28;1.30;;;0.90;;
74965;SDS011;63522;47.928;21.042;2022-09-25T00:14:53;1.60;;;1.00;;
74965;SDS011;63522;47.928;21.042;2022-09-25T00:17:19;1.30;;;0.80;;
74965;SDS011;63522;47.928;21.042;2022-09-25T00:19:45;1.20;;;0.80;;
74965;SDS011;63522;47.928;21.042;2022-09-25T00:22:17;1.50;;;0.90;;
74965;SDS011;63522;47.928;21.042;2022-09-25T00:24:43;1.50;;;1.00;;
74965;SDS011;63522;47.928;21.042;2022-09-25T00:27:09;1.30;;;1.00;;
74965;SDS011;63522;47.928;21.042;2022-09-25T00:29:35;1.30;;;0.80;;
74965;SDS011;63522;47.928;21.042;2022-09-25T00:32:02;1.30;;;1.00;;
74965;SDS011;63522;47.928;21.042;2022-09-25T00:34:29;1.40;;;1.10;;
74965;SDS011;63522;47.928;21.042;2022-09-25T00:36:54;1.60;;;0.90;;
74965;SDS011;63522;47.928;21.042;2022-09-25T00:39:19;1.20;;;0.80;;
74965;SDS011;63522;47.928;21.042;2022-09-25T00:41:45;1.20;;;0.90;;
74965;SDS011;63522;47.928;21.042;2022-09-25T00:47:17;1.00;;;0.70;;
74965;SDS011;63522;47.928;21.042;2022-09-25T00:49:48;1.10;;;0.90;;
74965;SDS011;63522;47.928;21.042;2022-09-25T00:52:14;1.00;;;0.70;;
74965;SDS011;63522;47.928;21.042;2022-09-25T00:54:42;1.40;;;0.90;;
74965;SDS011;63522;47.928;21.042;2022-09-25T00:57:12;1.00;;;0.80;;
74965;SDS011;63522;47.928;21.042;2022-09-25T00:59:46;1.40;;;0.70;;
74965;SDS011;63522;47.928;21.042;2022-09-25T01:02:18;1.10;;;0.80;;
74965;SDS011;63522;47.928;21.042;2022-09-25T01:04:48;2.50;;;0.90;;
74965;SDS011;63522;47.928;21.042;2022-09-25T01:07:15;1.70;;;1.00;;
74965;SDS011;63522;47.928;21.042;2022-09-25T01:09:42;1.60;;;1.20;;
74965;SDS011;63522;47.928;21.042;2022-09-25T01:12:09;1.10;;;0.80;;
74965;SDS011;63522;47.928;21.042;2022-09-25T01:14:35;1.40;;;0.90;;
74965;SDS011;63522;47.928;21.042;2022-09-25T01:19:53;1.90;;;1.00;;
74965;SDS011;63522;47.928;21.042;2022-09-25T01:30:52;0.90;;;0.80;;
74965;SDS011;63522;47.928;21.042;2022-09-25T01:33:59;1.20;;;0.90;;
74965;SDS011;63522;47.928;21.042;2022-09-25T01:36:34;0.90;;;0.70;;
74965;SDS011;63522;47.928;21.042;2022-09-25T01:41:49;0.90;;;0.80;;
74965;SDS011;63522;47.928;21.042;2022-09-25T01:44:31;1.50;;;0.90;;
74965;SDS011;63522;47.928;21.042;2022-09-25T01:47:03;1.50;;;1.00;;
74965;SDS011;63522;47.928;21.042;2022-09-25T01:52:04;1.60;;;0.80;;
74965;SDS011;63522;47.928;21.042;2022-09-25T01:54:36;1.40;;;0.80;;
74965;SDS011;63522;47.928;21.042;2022-09-25T01:57:09;1.50;;;0.90;;
74965;SDS011;63522;47.928;21.042;2022-09-25T02:02:18;1.00;;;0.70;;
74965;SDS011;63522;47.928;21.042;2022-09-25T02:04:51;1.20;;;0.80;;
74965;SDS011;63522;47.928;21.042;2022-09-25T02:07:28;1.80;;;1.00;;
74965;SDS011;63522;47.928;21.042;2022-09-25T02:10:02;1.60;;;1.10;;
74965;SDS011;63522;47.928;21.042;2022-09-25T02:12:37;2.30;;;0.90;;
74965;SDS011;63522;47.928;21.042;2022-09-25T02:15:08;2.40;;;0.90;;
74965;SDS011;63522;47.928;21.042;2022-09-25T02:17:43;1.50;;;0.80;;
74965;SDS011;63522;47.928;21.042;2022-09-25T02:20:35;1.10;;;0.80;;
74965;SDS011;63522;47.928;21.042;2022-09-25T02:23:22;1.00;;;0.80;;
74965;SDS011;63522;47.928;21.042;2022-09-25T02:26:05;2.10;;;1.00;;
74965;SDS011;63522;47.928;21.042;2022-09-25T02:28:35;1.00;;;0.70;;
74965;SDS011;63522;47.928;21.042;2022-09-25T02:31:01;1.50;;;0.90;;
74965;SDS011;63522;47.928;21.042;2022-09-25T02:33:30;1.10;;;0.80;;
74965;SDS011;63522;47.928;21.042;2022-09-25T02:35:56;1.20;;;0.80;;
74965;SDS011;63522;47.928;21.042;2022-09-25T02:38:25;1.20;;;0.80;;
74965;SDS011;63522;47.928;21.042;2022-09-25T02:40:55;0.90;;;0.80;;
74965;SDS011;63522;47.928;21.042;2022-09-25T02:46:38;1.50;;;0.80;;
74965;SDS011;63522;47.928;21.042;2022-09-25T02:49:27;1.30;;;0.70;;
74965;SDS011;63522;47.928;21.042;2022-09-25T02:52:04;1.20;;;0.80;;
74965;SDS011;63522;47.928;21.042;2022-09-25T02:54:55;1.10;;;0.70;;
74965;SDS011;63522;47.928;21.042;2022-09-25T03:00:20;1.30;;;1.00;;
74965;SDS011;63522;47.928;21.042;2022-09-25T03:02:47;1.00;;;0.70;;
74965;SDS011;63522;47.928;21.042;2022-09-25T03:05:20;1.00;;;0.70;;
74965;SDS011;63522;47.928;21.042;2022-09-25T03:07:49;1.10;;;0.70;;
74965;SDS011;63522;47.928;21.042;2022-09-25T03:10:34;1.40;;;0.70;;
74965;SDS011;63522;47.928;21.042;2022-09-25T03:13:15;1.00;;;0.70;;
74965;SDS011;63522;47.928;21.042;2022-09-25T03:15:56;1.10;;;0.60;;
74965;SDS011;63522;47.928;21.042;2022-09-25T03:18:25;0.90;;;0.70;;
74965;SDS011;63522;47.928;21.042;2022-09-25T03:20:52;1.30;;;0.70;;
74965;SDS011;63522;47.928;21.042;2022-09-25T03:23:18;0.90;;;0.70;;
74965;SDS011;63522;47.928;21.042;2022-09-25T03:25:45;0.70;;;0.70;;
74965;SDS011;63522;47.928;21.042;2022-09-25T03:28:12;0.90;;;0.60;;
74965;SDS011;63522;47.928;21.042;2022-09-25T03:30:38;1.00;;;0.60;;
74965;SDS011;63522;47.928;21.042;2022-09-25T03:33:08;0.60;;;0.60;;
74965;SDS011;63522;47.928;21.042;2022-09-25T03:35:38;1.30;;;0.80;;
74965;SDS011;63522;47.928;21.042;2022-09-25T03:38:04;1.00;;;0.70;;
74965;SDS011;63522;47.928;21.042;2022-09-25T03:40:32;0.80;;;0.60;;
74965;SDS011;63522;47.928;21.042;2022-09-25T03:42:58;1.30;;;0.80;;
74965;SDS011;63522;47.928;21.042;2022-09-25T03:45:23;1.40;;;0.80;;
74965;SDS011;63522;47.928;21.042;2022-09-25T03:47:49;0.80;;;0.50;;
74965;SDS011;63522;47.928;21.042;2022-09-25T03:50:14;0.80;;;0.80;;
74965;SDS011;63522;47.928;21.042;2022-09-25T03:52:39;1.10;;;0.70;;
74965;SDS011;63522;47.928;21.042;2022-09-25T03:55:05;1.40;;;0.80;;
74965;SDS011;63522;47.928;21.042;2022-09-25T03:57:31;1.50;;;0.70;;
74965;SDS011;63522;47.928;21.042;2022-09-25T03:59:56;1.40;;;0.90;;
74965;SDS011;63522;47.928;21.042;2022-09-25T04:02:27;1.20;;;0.80;;
74965;SDS011;63522;47.928;21.042;2022-09-25T04:04:53;1.10;;;0.80;;
74965;SDS011;63522;47.928;21.042;2022-09-25T04:07:22;0.80;;;0.70;;
74965;SDS011;63522;47.928;21.042;2022-09-25T04:09:49;0.90;;;0.50;;
74965;SDS011;63522;47.928;21.042;2022-09-25T04:12:15;0.70;;;0.60;;
74965;SDS011;63522;47.928;21.042;2022-09-25T04:14:41;0.90;;;0.70;;
74965;SDS011;63522;47.928;21.042;2022-09-25T04:17:09;0.90;;;0.60;;
74965;SDS011;63522;47.928;21.042;2022-09-25T04:19:35;1.20;;;0.80;;
74965;SDS011;63522;47.928;21.042;2022-09-25T04:22:00;0.90;;;0.70;;
74965;SDS011;63522;47.928;21.042;2022-09-25T04:24:26;1.00;;;0.80;;
74965;SDS011;63522;47.928;21.042;2022-09-25T04:27:10;1.00;;;0.80;;
74965;SDS011;63522;47.928;21.042;2022-09-25T04:29:35;1.30;;;1.00;;
74965;SDS011;63522;47.928;21.042;2022-09-25T04:32:01;1.40;;;1.00;;
74965;SDS011;63522;47.928;21.042;2022-09-25T04:34:46;1.30;;;0.80;;
74965;SDS011;63522;47.928;21.042;2022-09-25T04:37:11;1.30;;;0.80;;
74965;SDS011;63522;47.928;21.042;2022-09-25T04:39:38;1.30;;;0.90;;
74965;SDS011;63522;47.928;21.042;2022-09-25T04:42:04;1.20;;;0.70;;
74965;SDS011;63522;47.928;21.042;2022-09-25T04:44:30;0.70;;;0.60;;
74965;SDS011;63522;47.928;21.042;2022-09-25T04:46:55;1.20;;;0.90;;
74965;SDS011;63522;47.928;21.042;2022-09-25T04:49:21;1.20;;;0.70;;
74965;SDS011;63522;47.928;21.042;2022-09-25T04:51:46;1.10;;;0.80;;
74965;SDS011;63522;47.928;21.042;2022-09-25T04:54:12;0.70;;;0.60;;
74965;SDS011;63522;47.928;21.042;2022-09-25T04:56:39;1.00;;;0.60;;
74965;SDS011;63522;47.928;21.042;2022-09-25T04:59:04;1.10;;;0.80;;
74965;SDS011;63522;47.928;21.042;2022-09-25T05:01:29;0.80;;;0.50;;
74965;SDS011;63522;47.928;21.042;2022-09-25T05:03:55;1.00;;;0.70;;
74965;SDS011;63522;47.928;21.042;2022-09-25T05:06:21;1.30;;;0.70;;
74965;SDS011;63522;47.928;21.042;2022-09-25T05:08:47;1.40;;;0.90;;
74965;SDS011;63522;47.928;21.042;2022-09-25T05:11:16;1.00;;;0.60;;
74965;SDS011;63522;47.928;21.042;2022-09-25T05:13:42;0.50;;;0.50;;
74965;SDS011;63522;47.928;21.042;2022-09-25T05:16:10;1.30;;;0.80;;
74965;SDS011;63522;47.928;21.042;2022-09-25T05:18:36;1.30;;;0.90;;
74965;SDS011;63522;47.928;21.042;2022-09-25T05:21:02;0.60;;;0.50;;
74965;SDS011;63522;47.928;21.042;2022-09-25T05:23:29;1.10;;;0.70;;
74965;SDS011;63522;47.928;21.042;2022-09-25T05:25:55;1.10;;;0.70;;
74965;SDS011;63522;47.928;21.042;2022-09-25T05:28:29;1.20;;;0.70;;
74965;SDS011;63522;47.928;21.042;2022-09-25T05:30:59;1.70;;;0.70;;
74965;SDS011;63522;47.928;21.042;2022-09-25T05:33:28;1.20;;;0.70;;
74965;SDS011;63522;47.928;21.042;2022-09-25T05:35:54;1.20;;;0.60;;
74965;SDS011;63522;47.928;21.042;2022-09-25T05:38:19;1.00;;;0.70;;
74965;SDS011;63522;47.928;21.042;2022-09-25T05:40:45;1.30;;;0.70;;
74965;SDS011;63522;47.928;21.042;2022-09-25T05:43:10;1.30;;;0.70;;
74965;SDS011;63522;47.928;21.042;2022-09-25T05:45:36;0.90;;;0.70;;
74965;SDS011;63522;47.928;21.042;2022-09-25T05:48:06;1.10;;;0.60;;
74965;SDS011;63522;47.928;21.042;2022-09-25T05:50:32;0.70;;;0.60;;
74965;SDS011;63522;47.928;21.042;2022-09-25T05:52:59;1.00;;;0.70;;
74965;SDS011;63522;47.928;21.042;2022-09-25T05:57:51;1.00;;;0.60;;
74965;SDS011;63522;47.928;21.042;2022-09-25T06:00:17;0.90;;;0.60;;
74965;SDS011;63522;47.928;21.042;2022-09-25T06:02:43;1.00;;;0.70;;
74965;SDS011;63522;47.928;21.042;2022-09-25T06:05:08;0.80;;;0.70;;
74965;SDS011;63522;47.928;21.042;2022-09-25T06:07:34;0.80;;;0.60;;
74965;SDS011;63522;47.928;21.042;2022-09-25T06:10:00;1.10;;;0.70;;
74965;SDS011;63522;47.928;21.042;2022-09-25T06:12:29;1.10;;;0.70;;
74965;SDS011;63522;47.928;21.042;2022-09-25T06:14:55;1.10;;;0.60;;
74965;SDS011;63522;47.928;21.042;2022-09-25T06:17:20;0.80;;;0.70;;
74965;SDS011;63522;47.928;21.042;2022-09-25T06:19:46;1.70;;;0.80;;
74965;SDS011;63522;47.928;21.042;2022-09-25T06:22:11;1.80;;;0.80;;
74965;SDS011;63522;47.928;21.042;2022-09-25T06:24:37;1.30;;;0.90;;
74965;SDS011;63522;47.928;21.042;2022-09-25T06:27:04;1.20;;;0.70;;
74965;SDS011;63522;47.928;21.042;2022-09-25T06:31:55;1.40;;;0.80;;
74965;SDS011;63522;47.928;21.042;2022-09-25T06:34:21;1.00;;;0.80;;
74965;SDS011;63522;47.928;21.042;2022-09-25T06:36:47;1.10;;;0.70;;
74965;SDS011;63522;47.928;21.042;2022-09-25T06:39:12;0.90;;;0.60;;
74965;SDS011;63522;47.928;21.042;2022-09-25T06:41:38;0.80;;;0.60;;
74965;SDS011;63522;47.928;21.042;2022-09-25T06:44:04;0.90;;;0.70;;
74965;SDS011;63522;47.928;21.042;2022-09-25T06:46:31;1.00;;;0.70;;
74965;SDS011;63522;47.928;21.042;2022-09-25T06:48:56;1.10;;;0.70;;
74965;SDS011;63522;47.928;21.042;2022-09-25T06:51:22;0.90;;;0.50;;
74965;SDS011;63522;47.928;21.042;2022-09-25T06:53:51;1.20;;;1.00;;
74965;SDS011;63522;47.928;21.042;2022-09-25T06:56:17;1.40;;;0.70;;
74965;SDS011;63522;47.928;21.042;2022-09-25T06:58:43;0.80;;;0.70;;
74965;SDS011;63522;47.928;21.042;2022-09-25T07:01:08;1.60;;;0.70;;
74965;SDS011;63522;47.928;21.042;2022-09-25T07:03:36;0.80;;;0.70;;
74965;SDS011;63522;47.928;21.042;2022-09-25T07:06:16;1.10;;;0.80;;
74965;SDS011;63522;47.928;21.042;2022-09-25T07:08:44;0.90;;;0.70;;
74965;SDS011;63522;47.928;21.042;2022-09-25T07:11:13;0.90;;;0.70;;
74965;SDS011;63522;47.928;21.042;2022-09-25T07:13:40;0.60;;;0.50;;
74965;SDS011;63522;47.928;21.042;2022-09-25T07:16:16;0.70;;;0.70;;
74965;SDS011;63522;47.928;21.042;2022-09-25T07:18:43;0.70;;;0.60;;
74965;SDS011;63522;47.928;21.042;2022-09-25T07:21:11;1.10;;;0.90;;
74965;SDS011;63522;47.928;21.042;2022-09-25T07:23:38;0.90;;;0.70;;
74965;SDS011;63522;47.928;21.042;2022-09-25T07:31:17;1.10;;;0.70;;
74965;SDS011;63522;47.928;21.042;2022-09-25T07:33:44;1.20;;;0.80;;
74965;SDS011;63522;47.928;21.042;2022-09-25T07:36:11;1.60;;;0.80;;
74965;SDS011;63522;47.928;21.042;2022-09-25T07:38:37;1.20;;;0.90;;
74965;SDS011;63522;47.928;21.042;2022-09-25T07:41:03;1.50;;;0.70;;
74965;SDS011;63522;47.928;21.042;2022-09-25T07:43:30;1.10;;;0.70;;
74965;SDS011;63522;47.928;21.042;2022-09-25T07:45:57;0.90;;;0.80;;
74965;SDS011;63522;47.928;21.042;2022-09-25T07:48:22;1.60;;;0.90;;
74965;SDS011;63522;47.928;21.042;2022-09-25T07:50:48;1.50;;;0.90;;
74965;SDS011;63522;47.928;21.042;2022-09-25T07:53:14;1.10;;;0.80;;
74965;SDS011;63522;47.928;21.042;2022-09-25T07:55:44;0.90;;;0.50;;
74965;SDS011;63522;47.928;21.042;2022-09-25T07:58:10;1.30;;;0.70;;
74965;SDS011;63522;47.928;21.042;2022-09-25T08:00:36;1.60;;;0.70;;
74965;SDS011;63522;47.928;21.042;2022-09-25T08:03:02;1.10;;;0.80;;
74965;SDS011;63522;47.928;21.042;2022-09-25T08:05:27;1.40;;;0.80;;
74965;SDS011;63522;47.928;21.042;2022-09-25T08:07:53;1.80;;;1.00;;
74965;SDS011;63522;47.928;21.042;2022-09-25T08:10:19;1.40;;;0.90;;
74965;SDS011;63522;47.928;21.042;2022-09-25T08:12:45;1.10;;;0.70;;
74965;SDS011;63522;47.928;21.042;2022-09-25T08:15:11;1.20;;;1.00;;
74965;SDS011;63522;47.928;21.042;2022-09-25T08:17:39;1.40;;;0.90;;
74965;SDS011;63522;47.928;21.042;2022-09-25T08:20:05;1.00;;;0.80;;
74965;SDS011;63522;47.928;21.042;2022-09-25T08:22:31;1.80;;;0.90;;
74965;SDS011;63522;47.928;21.042;2022-09-25T08:24:58;1.10;;;0.80;;
74965;SDS011;63522;47.928;21.042;2022-09-25T08:27:27;1.10;;;0.80;;
74965;SDS011;63522;47.928;21.042;2022-09-25T08:29:55;1.40;;;0.90;;
74965;SDS011;63522;47.928;21.042;2022-09-25T08:32:21;0.80;;;0.70;;
74965;SDS011;63522;47.928;21.042;2022-09-25T08:34:47;1.30;;;0.80;;
74965;SDS011;63522;47.928;21.042;2022-09-25T08:37:13;1.00;;;0.60;;
74965;SDS011;63522;47.928;21.042;2022-09-25T08:39:39;1.20;;;0.70;;
74965;SDS011;63522;47.928;21.042;2022-09-25T08:42:05;1.70;;;0.60;;
74965;SDS011;63522;47.928;21.042;2022-09-25T08:44:40;1.70;;;0.70;;
74965;SDS011;63522;47.928;21.042;2022-09-25T08:50:20;1.20;;;0.80;;
74965;SDS011;63522;47.928;21.042;2022-09-25T08:52:50;1.20;;;0.90;;
74965;SDS011;63522;47.928;21.042;2022-09-25T08:55:24;1.20;;;0.80;;
74965;SDS011;63522;47.928;21.042;2022-09-25T08:58:13;1.20;;;0.80;;
74965;SDS011;63522;47.928;21.042;2022-09-25T09:00:45;1.40;;;0.90;;
74965;SDS011;63522;47.928;21.042;2022-09-25T09:03:11;1.90;;;0.90;;
74965;SDS011;63522;47.928;21.042;2022-09-25T09:05:40;1.50;;;0.90;;
74965;SDS011;63522;47.928;21.042;2022-09-25T09:08:17;1.10;;;0.70;;
74965;SDS011;63522;47.928;21.042;2022-09-25T09:13:47;1.20;;;0.80;;
74965;SDS011;63522;47.928;21.042;2022-09-25T09:18:51;1.00;;;0.70;;
74965;SDS011;63522;47.928;21.042;2022-09-25T09:21:20;1.30;;;0.80;;
74965;SDS011;63522;47.928;21.042;2022-09-25T09:32:28;1.20;;;0.80;;
74965;SDS011;63522;47.928;21.042;2022-09-25T09:38:15;1.20;;;0.70;;
74965;SDS011;63522;47.928;21.042;2022-09-25T09:40:49;1.20;;;0.90;;
74965;SDS011;63522;47.928;21.042;2022-09-25T09:48:57;1.50;;;0.90;;
74965;SDS011;63522;47.928;21.042;2022-09-25T09:51:38;2.00;;;0.80;;
74965;SDS011;63522;47.928;21.042;2022-09-25T09:54:23;1.40;;;0.70;;
74965;SDS011;63522;47.928;21.042;2022-09-25T09:56:56;2.60;;;1.10;;
74965;SDS011;63522;47.928;21.042;2022-09-25T09:59:26;1.70;;;0.90;;
74965;SDS011;63522;47.928;21.042;2022-09-25T10:02:39;1.20;;;0.80;;
74965;SDS011;63522;47.928;21.042;2022-09-25T10:04:56;1.50;;;0.90;;
74965;SDS011;63522;47.928;21.042;2022-09-25T10:07:25;1.20;;;0.80;;
74965;SDS011;63522;47.928;21.042;2022-09-25T10:09:54;1.40;;;0.90;;
74965;SDS011;63522;47.928;21.042;2022-09-25T10:12:27;1.70;;;0.90;;
74965;SDS011;63522;47.928;21.042;2022-09-25T10:14:57;1.60;;;0.80;;
74965;SDS011;63522;47.928;21.042;2022-09-25T10:17:27;1.10;;;0.90;;
74965;SDS011;63522;47.928;21.042;2022-09-25T10:19:56;3.00;;;1.00;;
74965;SDS011;63522;47.928;21.042;2022-09-25T10:22:28;3.20;;;1.10;;
74965;SDS011;63522;47.928;21.042;2022-09-25T10:25:02;1.60;;;0.90;;
74965;SDS011;63522;47.928;21.042;2022-09-25T10:27:36;2.10;;;1.20;;
74965;SDS011;63522;47.928;21.042;2022-09-25T10:35:30;2.80;;;1.00;;
74965;SDS011;63522;47.928;21.042;2022-09-25T10:38:13;5.90;;;1.30;;
74965;SDS011;63522;47.928;21.042;2022-09-25T10:43:29;2.10;;;1.10;;
74965;SDS011;63522;47.928;21.042;2022-09-25T10:46:11;3.30;;;1.00;;
74965;SDS011;63522;47.928;21.042;2022-09-25T10:48:39;1.40;;;0.80;;
74965;SDS011;63522;47.928;21.042;2022-09-25T10:51:24;4.10;;;1.10;;
74965;SDS011;63522;47.928;21.042;2022-09-25T10:53:51;2.70;;;1.00;;
74965;SDS011;63522;47.928;21.042;2022-09-25T10:56:37;2.70;;;1.10;;
74965;SDS011;63522;47.928;21.042;2022-09-25T10:59:19;2.90;;;1.20;;
74965;SDS011;63522;47.928;21.042;2022-09-25T11:01:47;2.80;;;1.10;;
74965;SDS011;63522;47.928;21.042;2022-09-25T11:06:47;1.90;;;1.00;;
74965;SDS011;63522;47.928;21.042;2022-09-25T11:09:26;2.00;;;0.90;;
74965;SDS011;63522;47.928;21.042;2022-09-25T11:12:06;4.70;;;1.20;;
74965;SDS011;63522;47.928;21.042;2022-09-25T11:14:37;2.20;;;1.00;;
74965;SDS011;63522;47.928;21.042;2022-09-25T11:17:27;2.30;;;0.90;;
74965;SDS011;63522;47.928;21.042;2022-09-25T11:28:23;2.90;;;1.00;;
74965;SDS011;63522;47.928;21.042;2022-09-25T11:31:11;2.20;;;1.20;;
74965;SDS011;63522;47.928;21.042;2022-09-25T11:36:52;2.10;;;1.10;;
74965;SDS011;63522;47.928;21.042;2022-09-25T11:39:24;3.00;;;1.00;;
74965;SDS011;63522;47.928;21.042;2022-09-25T11:42:13;2.90;;;0.90;;
74965;SDS011;63522;47.928;21.042;2022-09-25T11:44:44;1.50;;;1.00;;
74965;SDS011;63522;47.928;21.042;2022-09-25T11:47:39;2.30;;;1.10;;
74965;SDS011;63522;47.928;21.042;2022-09-25T11:50:12;2.80;;;1.10;;
74965;SDS011;63522;47.928;21.042;2022-09-25T12:09:04;3.70;;;1.10;;
74965;SDS011;63522;47.928;21.042;2022-09-25T12:31:16;3.30;;;1.00;;
74965;SDS011;63522;47.928;21.042;2022-09-25T12:36:44;2.40;;;1.20;;
74965;SDS011;63522;47.928;21.042;2022-09-25T12:44:45;1.60;;;0.90;;
74965;SDS011;63522;47.928;21.042;2022-09-25T12:50:13;1.50;;;0.80;;
74965;SDS011;63522;47.928;21.042;2022-09-25T12:52:43;1.60;;;0.90;;
74965;SDS011;63522;47.928;21.042;2022-09-25T12:55:31;3.60;;;1.20;;
74965;SDS011;63522;47.928;21.042;2022-09-25T12:58:08;2.80;;;1.30;;
74965;SDS011;63522;47.928;21.042;2022-09-25T13:01:02;2.80;;;1.10;;
74965;SDS011;63522;47.928;21.042;2022-09-25T13:06:50;1.70;;;1.10;;
74965;SDS011;63522;47.928;21.042;2022-09-25T13:15:16;2.20;;;1.20;;
74965;SDS011;63522;47.928;21.042;2022-09-25T13:17:45;1.60;;;0.90;;
74965;SDS011;63522;47.928;21.042;2022-09-25T13:23:07;1.70;;;1.20;;
74965;SDS011;63522;47.928;21.042;2022-09-25T13:28:15;2.60;;;1.00;;
74965;SDS011;63522;47.928;21.042;2022-09-25T13:30:56;3.50;;;1.10;;
74965;SDS011;63522;47.928;21.042;2022-09-25T13:33:26;1.50;;;1.00;;
74965;SDS011;63522;47.928;21.042;2022-09-25T13:36:05;2.00;;;1.20;;
74965;SDS011;63522;47.928;21.042;2022-09-25T13:38:54;1.60;;;1.00;;
74965;SDS011;63522;47.928;21.042;2022-09-25T13:45:02;2.60;;;1.00;;
74965;SDS011;63522;47.928;21.042;2022-09-25T13:55:17;2.30;;;1.00;;
74965;SDS011;63522;47.928;21.042;2022-09-25T14:03:00;3.10;;;1.40;;
74965;SDS011;63522;47.928;21.042;2022-09-25T14:05:34;3.30;;;1.40;;
74965;SDS011;63522;47.928;21.042;2022-09-25T14:08:11;4.20;;;2.30;;
74965;SDS011;63522;47.928;21.042;2022-09-25T14:10:47;7.20;;;4.40;;
74965;SDS011;63522;47.928;21.042;2022-09-25T14:13:16;8.10;;;4.80;;
74965;SDS011;63522;47.928;21.042;2022-09-25T14:15:49;9.50;;;6.80;;
74965;SDS011;63522;47.928;21.042;2022-09-25T14:18:24;11.40;;;7.30;;
74965;SDS011;63522;47.928;21.042;2022-09-25T14:20:57;9.50;;;6.90;;
74965;SDS011;63522;47.928;21.042;2022-09-25T14:23:25;12.40;;;8.20;;
74965;SDS011;63522;47.928;21.042;2022-09-25T14:28:33;11.60;;;8.80;;
74965;SDS011;63522;47.928;21.042;2022-09-25T14:45:57;12.30;;;8.80;;
74965;SDS011;63522;47.928;21.042;2022-09-25T14:48:32;12.90;;;8.80;;
74965;SDS011;63522;47.928;21.042;2022-09-25T14:51:43;13.20;;;9.10;;
74965;SDS011;63522;47.928;21.042;2022-09-25T14:54:06;13.50;;;9.10;;
74965;SDS011;63522;47.928;21.042;2022-09-25T14:56:36;12.10;;;8.60;;
74965;SDS011;63522;47.928;21.042;2022-09-25T14:59:09;12.80;;;8.80;;
74965;SDS011;63522;47.928;21.042;2022-09-25T15:01:57;12.40;;;8.50;;
74965;SDS011;63522;47.928;21.042;2022-09-25T15:04:30;11.30;;;8.40;;
74965;SDS011;63522;47.928;21.042;2022-09-25T15:07:01;11.20;;;8.20;;
74965;SDS011;63522;47.928;21.042;2022-09-25T15:09:39;10.70;;;7.70;;
74965;SDS011;63522;47.928;21.042;2022-09-25T15:17:44;10.40;;;7.70;;
74965;SDS011;63522;47.928;21.042;2022-09-25T15:20:14;10.70;;;8.20;;
74965;SDS011;63522;47.928;21.042;2022-09-25T15:22:46;11.30;;;8.00;;
74965;SDS011;63522;47.928;21.042;2022-09-25T15:25:20;10.00;;;8.10;;
74965;SDS011;63522;47.928;21.042;2022-09-25T15:27:50;12.10;;;8.00;;
74965;SDS011;63522;47.928;21.042;2022-09-25T15:30:15;10.60;;;7.70;;
74965;SDS011;63522;47.928;21.042;2022-09-25T15:32:42;11.50;;;8.10;;
74965;SDS011;63522;47.928;21.042;2022-09-25T15:35:13;10.50;;;8.30;;
74965;SDS011;63522;47.928;21.042;2022-09-25T15:37:41;10.50;;;7.90;;
74965;SDS011;63522;47.928;21.042;2022-09-25T15:40:15;11.00;;;9.20;;
74965;SDS011;63522;47.928;21.042;2022-09-25T15:42:51;9.90;;;7.50;;
74965;SDS011;63522;47.928;21.042;2022-09-25T15:47:52;8.80;;;7.00;;
74965;SDS011;63522;47.928;21.042;2022-09-25T15:50:22;9.50;;;7.10;;
74965;SDS011;63522;47.928;21.042;2022-09-25T15:52:52;10.40;;;7.70;;
74965;SDS011;63522;47.928;21.042;2022-09-25T15:55:24;9.90;;;7.20;;
74965;SDS011;63522;47.928;21.042;2022-09-25T15:57:53;11.00;;;8.00;;
74965;SDS011;63522;47.928;21.042;2022-09-25T16:00:28;11.40;;;7.70;;
74965;SDS011;63522;47.928;21.042;2022-09-25T16:05:56;10.00;;;7.10;;
74965;SDS011;63522;47.928;21.042;2022-09-25T16:08:30;9.40;;;7.60;;
74965;SDS011;63522;47.928;21.042;2022-09-25T16:13:49;9.60;;;7.20;;
74965;SDS011;63522;47.928;21.042;2022-09-25T16:23:58;10.00;;;7.10;;
74965;SDS011;63522;47.928;21.042;2022-09-25T16:26:34;10.20;;;7.20;;
74965;SDS011;63522;47.928;21.042;2022-09-25T16:31:39;9.70;;;7.40;;
74965;SDS011;63522;47.928;21.042;2022-09-25T16:34:13;8.70;;;6.60;;
74965;SDS011;63522;47.928;21.042;2022-09-25T16:36:53;10.20;;;8.10;;
74965;SDS011;63522;47.928;21.042;2022-09-25T16:39:35;9.40;;;7.10;;
74965;SDS011;63522;47.928;21.042;2022-09-25T16:44:46;10.00;;;7.30;;
74965;SDS011;63522;47.928;21.042;2022-09-25T16:47:19;10.30;;;6.90;;
74965;SDS011;63522;47.928;21.042;2022-09-25T16:49:46;9.40;;;7.00;;
74965;SDS011;63522;47.928;21.042;2022-09-25T16:52:17;10.00;;;7.20;;
74965;SDS011;63522;47.928;21.042;2022-09-25T16:54:46;9.10;;;6.50;;
74965;SDS011;63522;47.928;21.042;2022-09-25T16:57:17;9.70;;;7.10;;
74965;SDS011;63522;47.928;21.042;2022-09-25T16:59:47;8.40;;;7.10;;
74965;SDS011;63522;47.928;21.042;2022-09-25T17:02:26;9.60;;;7.00;;
74965;SDS011;63522;47.928;21.042;2022-09-25T17:05:07;8.60;;;6.70;;
74965;SDS011;63522;47.928;21.042;2022-09-25T17:07:45;8.60;;;6.90;;
74965;SDS011;63522;47.928;21.042;2022-09-25T17:10:12;8.90;;;6.80;;
74965;SDS011;63522;47.928;21.042;2022-09-25T17:12:40;9.30;;;6.60;;
74965;SDS011;63522;47.928;21.042;2022-09-25T17:15:31;8.20;;;6.40;;
74965;SDS011;63522;47.928;21.042;2022-09-25T17:17:56;8.40;;;6.30;;
74965;SDS011;63522;47.928;21.042;2022-09-25T17:20:25;9.10;;;6.70;;
74965;SDS011;63522;47.928;21.042;2022-09-25T17:22:54;8.20;;;6.00;;
74965;SDS011;63522;47.928;21.042;2022-09-25T17:25:25;9.60;;;5.90;;
74965;SDS011;63522;47.928;21.042;2022-09-25T17:28:01;7.70;;;5.90;;
74965;SDS011;63522;47.928;21.042;2022-09-25T17:30:27;9.10;;;6.40;;
74965;SDS011;63522;47.928;21.042;2022-09-25T17:32:53;9.00;;;6.40;;
74965;SDS011;63522;47.928;21.042;2022-09-25T17:38:08;8.80;;;6.20;;
74965;SDS011;63522;47.928;21.042;2022-09-25T17:40:37;9.60;;;6.80;;
74965;SDS011;63522;47.928;21.042;2022-09-25T17:43:07;8.60;;;6.10;;
74965;SDS011;63522;47.928;21.042;2022-09-25T17:45:36;8.40;;;5.80;;
74965;SDS011;63522;47.928;21.042;2022-09-25T17:48:09;7.90;;;5.80;;
74965;SDS011;63522;47.928;21.042;2022-09-25T17:50:36;8.90;;;6.50;;
74965;SDS011;63522;47.928;21.042;2022-09-25T17:53:04;7.50;;;5.70;;
74965;SDS011;63522;47.928;21.042;2022-09-25T17:55:38;7.70;;;6.50;;
74965;SDS011;63522;47.928;21.042;2022-09-25T17:58:04;7.80;;;5.80;;
74965;SDS011;63522;47.928;21.042;2022-09-25T18:00:29;8.10;;;6.10;;
74965;SDS011;63522;47.928;21.042;2022-09-25T18:02:55;8.30;;;6.20;;
74965;SDS011;63522;47.928;21.042;2022-09-25T18:05:20;7.40;;;5.60;;
74965;SDS011;63522;47.928;21.042;2022-09-25T18:07:46;9.70;;;6.90;;
74965;SDS011;63522;47.928;21.042;2022-09-25T18:10:11;7.20;;;5.80;;
74965;SDS011;63522;47.928;21.042;2022-09-25T18:12:37;7.20;;;5.80;;
74965;SDS011;63522;47.928;21.042;2022-09-25T18:15:04;8.10;;;5.90;;
74965;SDS011;63522;47.928;21.042;2022-09-25T18:17:30;7.90;;;5.70;;
74965;SDS011;63522;47.928;21.042;2022-09-25T18:19:56;8.00;;;5.80;;
74965;SDS011;63522;47.928;21.042;2022-09-25T18:22:40;7.00;;;5.40;;
74965;SDS011;63522;47.928;21.042;2022-09-25T18:25:05;7.00;;;5.30;;